sensor_id;sensor_type;location;lat;lon;timestamp;pressure;altitude;pressure_sealevel;temperature
18782;BMP180;9519;51.890;8.970;2022-10-16T00:00:57;98819.00;;;13.20
18782;BMP180;9519;51.890;8.970;2022-10-16T00:06:00;98816.00;;;13.20
18782;BMP180;9519;51.890;8.970;2022-10-16T00:11:06;98822.00;;;13.20
18782;BMP180;9519;51.890;8.970;2022-10-16T00:16:11;98835.00;;;13.10
18782;BMP180;9519;51.890;8.970;2022-10-16T00:21:17;98820.00;;;13.20
18782;BMP180;9519;51.890;8.970;2022-10-16T00:26:20;98830.00;;;13.10
18782;BMP180;9519;51.890;8.970;2022-10-16T00:31:24;98825.00;;;13.10
18782;BMP180;9519;51.890;8.970;2022-10-16T00:36:27;98832.00;;;13.00
18782;BMP180;9519;51.890;8.970;2022-10-16T00:41:30;98835.00;;;13.00
18782;BMP180;9519;51.890;8.970;2022-10-16T00:46:38;98837.00;;;13.00
18782;BMP180;9519;51.890;8.970;2022-10-16T00:51:45;98830.00;;;13.00
18782;BMP180;9519;51.890;8.970;2022-10-16T00:56:48;98825.00;;;12.90
18782;BMP180;9519;51.890;8.970;2022-10-16T01:01:53;98830.00;;;12.90
18782;BMP180;9519;51.890;8.970;2022-10-16T01:07:06;98827.00;;;12.80
18782;BMP180;9519;51.890;8.970;2022-10-16T01:12:15;98827.00;;;12.80
18782;BMP180;9519;51.890;8.970;2022-10-16T01:17:28;98819.00;;;12.80
18782;BMP180;9519;51.890;8.970;2022-10-16T01:22:42;98828.00;;;12.80
18782;BMP180;9519;51.890;8.970;2022-10-16T01:27:48;98831.00;;;12.70
18782;BMP180;9519;51.890;8.970;2022-10-16T01:32:56;98833.00;;;12.70
18782;BMP180;9519;51.890;8.970;2022-10-16T01:38:06;98837.00;;;12.70
18782;BMP180;9519;51.890;8.970;2022-10-16T01:43:15;98847.00;;;12.60
18782;BMP180;9519;51.890;8.970;2022-10-16T01:48:21;98853.00;;;12.60
18782;BMP180;9519;51.890;8.970;2022-10-16T01:53:25;98868.00;;;12.70
18782;BMP180;9519;51.890;8.970;2022-10-16T01:58:33;98851.00;;;12.70
18782;BMP180;9519;51.890;8.970;2022-10-16T02:03:40;98861.00;;;12.70
18782;BMP180;9519;51.890;8.970;2022-10-16T02:08:44;98871.00;;;12.70
18782;BMP180;9519;51.890;8.970;2022-10-16T02:13:53;98859.00;;;12.60
18782;BMP180;9519;51.890;8.970;2022-10-16T02:18:56;98862.00;;;12.60
18782;BMP180;9519;51.890;8.970;2022-10-16T02:24:06;98856.00;;;12.50
18782;BMP180;9519;51.890;8.970;2022-10-16T02:29:17;98849.00;;;12.50
18782;BMP180;9519;51.890;8.970;2022-10-16T02:34:22;98861.00;;;12.40
18782;BMP180;9519;51.890;8.970;2022-10-16T02:39:28;98855.00;;;12.30
18782;BMP180;9519;51.890;8.970;2022-10-16T02:44:32;98858.00;;;12.30
18782;BMP180;9519;51.890;8.970;2022-10-16T02:49:34;98851.00;;;12.20
18782;BMP180;9519;51.890;8.970;2022-10-16T02:54:36;98849.00;;;12.20
18782;BMP180;9519;51.890;8.970;2022-10-16T02:59:39;98858.00;;;12.10
18782;BMP180;9519;51.890;8.970;2022-10-16T03:04:41;98847.00;;;12.10
18782;BMP180;9519;51.890;8.970;2022-10-16T03:09:43;98836.00;;;12.10
18782;BMP180;9519;51.890;8.970;2022-10-16T03:14:47;98850.00;;;12.10
18782;BMP180;9519;51.890;8.970;2022-10-16T03:19:49;98824.00;;;12.10
18782;BMP180;9519;51.890;8.970;2022-10-16T03:24:51;98863.00;;;12.10
18782;BMP180;9519;51.890;8.970;2022-10-16T03:29:55;98862.00;;;12.20
18782;BMP180;9519;51.890;8.970;2022-10-16T03:34:57;98862.00;;;12.20
18782;BMP180;9519;51.890;8.970;2022-10-16T03:39:59;98861.00;;;12.30
18782;BMP180;9519;51.890;8.970;2022-10-16T03:45:04;98867.00;;;12.30
18782;BMP180;9519;51.890;8.970;2022-10-16T03:50:07;98854.00;;;12.30
18782;BMP180;9519;51.890;8.970;2022-10-16T03:55:10;98858.00;;;12.30
18782;BMP180;9519;51.890;8.970;2022-10-16T04:00:13;98867.00;;;12.20
18782;BMP180;9519;51.890;8.970;2022-10-16T04:05:15;98882.00;;;12.20
18782;BMP180;9519;51.890;8.970;2022-10-16T04:10:18;98877.00;;;12.10
18782;BMP180;9519;51.890;8.970;2022-10-16T04:15:23;98858.00;;;12.10
18782;BMP180;9519;51.890;8.970;2022-10-16T04:20:25;98855.00;;;12.10
18782;BMP180;9519;51.890;8.970;2022-10-16T04:25:27;98876.00;;;12.10
18782;BMP180;9519;51.890;8.970;2022-10-16T04:30:30;98865.00;;;12.10
18782;BMP180;9519;51.890;8.970;2022-10-16T04:35:34;98866.00;;;12.10
18782;BMP180;9519;51.890;8.970;2022-10-16T04:40:36;98891.00;;;12.00
18782;BMP180;9519;51.890;8.970;2022-10-16T04:45:39;98891.00;;;12.00
18782;BMP180;9519;51.890;8.970;2022-10-16T04:50:41;98898.00;;;12.00
18782;BMP180;9519;51.890;8.970;2022-10-16T04:55:43;98892.00;;;12.00
18782;BMP180;9519;51.890;8.970;2022-10-16T05:00:47;98893.00;;;12.00
18782;BMP180;9519;51.890;8.970;2022-10-16T05:05:49;98907.00;;;12.00
18782;BMP180;9519;51.890;8.970;2022-10-16T05:10:52;98902.00;;;12.00
18782;BMP180;9519;51.890;8.970;2022-10-16T05:15:55;98893.00;;;12.10
18782;BMP180;9519;51.890;8.970;2022-10-16T05:20:57;98907.00;;;12.00
18782;BMP180;9519;51.890;8.970;2022-10-16T05:25:59;98910.00;;;12.00
18782;BMP180;9519;51.890;8.970;2022-10-16T05:31:06;98903.00;;;12.00
18782;BMP180;9519;51.890;8.970;2022-10-16T05:36:10;98921.00;;;12.00
18782;BMP180;9519;51.890;8.970;2022-10-16T05:41:12;98934.00;;;12.00
18782;BMP180;9519;51.890;8.970;2022-10-16T05:46:16;98918.00;;;12.00
18782;BMP180;9519;51.890;8.970;2022-10-16T05:51:18;98911.00;;;12.10
18782;BMP180;9519;51.890;8.970;2022-10-16T05:56:20;98936.00;;;12.10
18782;BMP180;9519;51.890;8.970;2022-10-16T06:01:24;98931.00;;;12.10
18782;BMP180;9519;51.890;8.970;2022-10-16T06:06:28;98951.00;;;12.10
18782;BMP180;9519;51.890;8.970;2022-10-16T06:11:32;98952.00;;;12.10
18782;BMP180;9519;51.890;8.970;2022-10-16T06:16:37;98968.00;;;12.10
18782;BMP180;9519;51.890;8.970;2022-10-16T06:21:40;98975.00;;;12.10
18782;BMP180;9519;51.890;8.970;2022-10-16T06:26:42;98975.00;;;12.10
18782;BMP180;9519;51.890;8.970;2022-10-16T06:31:45;98980.00;;;12.10
18782;BMP180;9519;51.890;8.970;2022-10-16T06:36:47;98983.00;;;12.10
18782;BMP180;9519;51.890;8.970;2022-10-16T06:41:49;98983.00;;;12.20
18782;BMP180;9519;51.890;8.970;2022-10-16T06:46:53;98991.00;;;12.20
18782;BMP180;9519;51.890;8.970;2022-10-16T06:51:55;99014.00;;;12.30
18782;BMP180;9519;51.890;8.970;2022-10-16T06:56:57;99012.00;;;12.30
18782;BMP180;9519;51.890;8.970;2022-10-16T07:02:02;99008.00;;;12.40
18782;BMP180;9519;51.890;8.970;2022-10-16T07:07:04;99029.00;;;12.50
18782;BMP180;9519;51.890;8.970;2022-10-16T07:12:06;99032.00;;;12.50
18782;BMP180;9519;51.890;8.970;2022-10-16T07:17:09;99034.00;;;12.60
18782;BMP180;9519;51.890;8.970;2022-10-16T07:22:11;99061.00;;;12.80
18782;BMP180;9519;51.890;8.970;2022-10-16T07:27:14;99050.00;;;12.90
18782;BMP180;9519;51.890;8.970;2022-10-16T07:32:18;99067.00;;;13.10
18782;BMP180;9519;51.890;8.970;2022-10-16T07:37:20;99080.00;;;13.20
18782;BMP180;9519;51.890;8.970;2022-10-16T07:42:23;99086.00;;;13.40
18782;BMP180;9519;51.890;8.970;2022-10-16T07:47:26;99083.00;;;13.60
18782;BMP180;9519;51.890;8.970;2022-10-16T07:52:28;99111.00;;;13.70
18782;BMP180;9519;51.890;8.970;2022-10-16T07:57:30;99108.00;;;13.90
18782;BMP180;9519;51.890;8.970;2022-10-16T08:02:33;99121.00;;;14.10
18782;BMP180;9519;51.890;8.970;2022-10-16T08:07:35;99121.00;;;14.20
18782;BMP180;9519;51.890;8.970;2022-10-16T08:12:38;99123.00;;;14.30
18782;BMP180;9519;51.890;8.970;2022-10-16T08:17:42;99129.00;;;14.40
18782;BMP180;9519;51.890;8.970;2022-10-16T08:22:44;99134.00;;;14.50
18782;BMP180;9519;51.890;8.970;2022-10-16T08:27:46;99296.00;;;14.60
18782;BMP180;9519;51.890;8.970;2022-10-16T08:32:49;99137.00;;;14.60
18782;BMP180;9519;51.890;8.970;2022-10-16T08:37:51;99316.00;;;14.70
18782;BMP180;9519;51.890;8.970;2022-10-16T08:43:23;99160.00;;;14.80
18782;BMP180;9519;51.890;8.970;2022-10-16T08:48:41;99163.00;;;14.70
18782;BMP180;9519;51.890;8.970;2022-10-16T08:53:50;99348.00;;;14.90
18782;BMP180;9519;51.890;8.970;2022-10-16T08:58:54;99358.00;;;15.00
18782;BMP180;9519;51.890;8.970;2022-10-16T09:04:28;99360.00;;;15.10
18782;BMP180;9519;51.890;8.970;2022-10-16T09:10:04;99374.00;;;15.30
18782;BMP180;9519;51.890;8.970;2022-10-16T09:15:23;99387.00;;;15.40
18782;BMP180;9519;51.890;8.970;2022-10-16T09:20:42;99205.00;;;15.50
18782;BMP180;9519;51.890;8.970;2022-10-16T09:25:49;99385.00;;;15.60
18782;BMP180;9519;51.890;8.970;2022-10-16T09:30:52;99389.00;;;15.70
18782;BMP180;9519;51.890;8.970;2022-10-16T09:35:57;99391.00;;;15.80
18782;BMP180;9519;51.890;8.970;2022-10-16T09:41:03;99402.00;;;16.00
18782;BMP180;9519;51.890;8.970;2022-10-16T09:46:25;99410.00;;;16.10
18782;BMP180;9519;51.890;8.970;2022-10-16T09:51:33;99412.00;;;16.20
18782;BMP180;9519;51.890;8.970;2022-10-16T09:56:37;99409.00;;;16.20
18782;BMP180;9519;51.890;8.970;2022-10-16T10:01:44;99416.00;;;16.30
18782;BMP180;9519;51.890;8.970;2022-10-16T10:06:51;99387.00;;;16.40
18782;BMP180;9519;51.890;8.970;2022-10-16T10:11:56;99251.00;;;16.40
18782;BMP180;9519;51.890;8.970;2022-10-16T10:17:13;99266.00;;;16.30
18782;BMP180;9519;51.890;8.970;2022-10-16T10:22:26;99273.00;;;16.20
18782;BMP180;9519;51.890;8.970;2022-10-16T10:27:39;99291.00;;;16.20
18782;BMP180;9519;51.890;8.970;2022-10-16T10:33:03;99466.00;;;16.30
18782;BMP180;9519;51.890;8.970;2022-10-16T10:38:27;99461.00;;;16.40
18782;BMP180;9519;51.890;8.970;2022-10-16T10:43:50;99460.00;;;16.70
18782;BMP180;9519;51.890;8.970;2022-10-16T10:49:14;99279.00;;;16.60
18782;BMP180;9519;51.890;8.970;2022-10-16T10:54:27;99458.00;;;16.70
18782;BMP180;9519;51.890;8.970;2022-10-16T11:00:03;99461.00;;;16.80
18782;BMP180;9519;51.890;8.970;2022-10-16T11:05:40;99460.00;;;17.00
18782;BMP180;9519;51.890;8.970;2022-10-16T11:10:52;99450.00;;;17.10
18782;BMP180;9519;51.890;8.970;2022-10-16T11:15:59;99459.00;;;17.10
18782;BMP180;9519;51.890;8.970;2022-10-16T11:21:07;99461.00;;;17.20
18782;BMP180;9519;51.890;8.970;2022-10-16T11:26:18;99463.00;;;17.20
18782;BMP180;9519;51.890;8.970;2022-10-16T11:31:29;99300.00;;;17.40
18782;BMP180;9519;51.890;8.970;2022-10-16T11:36:40;99476.00;;;17.40
18782;BMP180;9519;51.890;8.970;2022-10-16T11:41:51;99452.00;;;17.60
18782;BMP180;9519;51.890;8.970;2022-10-16T11:47:09;99459.00;;;17.60
18782;BMP180;9519;51.890;8.970;2022-10-16T11:52:20;99458.00;;;17.60
18782;BMP180;9519;51.890;8.970;2022-10-16T11:57:29;99468.00;;;17.60
18782;BMP180;9519;51.890;8.970;2022-10-16T12:02:46;99476.00;;;17.70
18782;BMP180;9519;51.890;8.970;2022-10-16T12:08:06;99467.00;;;17.80
18782;BMP180;9519;51.890;8.970;2022-10-16T12:13:32;99473.00;;;17.90
18782;BMP180;9519;51.890;8.970;2022-10-16T12:18:34;99479.00;;;17.90
18782;BMP180;9519;51.890;8.970;2022-10-16T12:23:45;99481.00;;;17.90
18782;BMP180;9519;51.890;8.970;2022-10-16T12:28:49;99469.00;;;17.90
18782;BMP180;9519;51.890;8.970;2022-10-16T12:33:59;99492.00;;;18.00
18782;BMP180;9519;51.890;8.970;2022-10-16T12:39:03;99497.00;;;18.00
18782;BMP180;9519;51.890;8.970;2022-10-16T12:44:23;99505.00;;;18.10
18782;BMP180;9519;51.890;8.970;2022-10-16T12:49:36;99495.00;;;18.10
18782;BMP180;9519;51.890;8.970;2022-10-16T12:54:39;99494.00;;;18.10
18782;BMP180;9519;51.890;8.970;2022-10-16T12:59:51;99499.00;;;18.20
18782;BMP180;9519;51.890;8.970;2022-10-16T13:05:20;99516.00;;;18.30
18782;BMP180;9519;51.890;8.970;2022-10-16T13:10:32;99523.00;;;18.50
18782;BMP180;9519;51.890;8.970;2022-10-16T13:15:58;99506.00;;;18.60
18782;BMP180;9519;51.890;8.970;2022-10-16T13:21:20;99523.00;;;18.80
18782;BMP180;9519;51.890;8.970;2022-10-16T13:26:39;99551.00;;;18.90
18782;BMP180;9519;51.890;8.970;2022-10-16T13:31:47;99549.00;;;18.90
18782;BMP180;9519;51.890;8.970;2022-10-16T13:36:52;99542.00;;;18.60
18782;BMP180;9519;51.890;8.970;2022-10-16T13:42:02;99547.00;;;18.50
18782;BMP180;9519;51.890;8.970;2022-10-16T13:47:16;99549.00;;;18.40
18782;BMP180;9519;51.890;8.970;2022-10-16T13:52:20;99567.00;;;18.30
18782;BMP180;9519;51.890;8.970;2022-10-16T13:57:24;99582.00;;;18.30
18782;BMP180;9519;51.890;8.970;2022-10-16T14:02:32;99505.00;;;18.40
18782;BMP180;9519;51.890;8.970;2022-10-16T14:07:36;99579.00;;;18.50
18782;BMP180;9519;51.890;8.970;2022-10-16T14:12:39;99586.00;;;18.70
18782;BMP180;9519;51.890;8.970;2022-10-16T14:17:51;99566.00;;;18.80
18782;BMP180;9519;51.890;8.970;2022-10-16T14:23:03;99571.00;;;18.80
18782;BMP180;9519;51.890;8.970;2022-10-16T14:28:17;99569.00;;;18.90
18782;BMP180;9519;51.890;8.970;2022-10-16T14:33:25;99582.00;;;19.00
18782;BMP180;9519;51.890;8.970;2022-10-16T14:38:34;99578.00;;;19.20
18782;BMP180;9519;51.890;8.970;2022-10-16T14:43:39;99586.00;;;19.50
18782;BMP180;9519;51.890;8.970;2022-10-16T14:48:46;99572.00;;;19.70
18782;BMP180;9519;51.890;8.970;2022-10-16T14:53:49;99552.00;;;20.00
18782;BMP180;9519;51.890;8.970;2022-10-16T14:58:53;99557.00;;;20.20
18782;BMP180;9519;51.890;8.970;2022-10-16T15:03:56;99567.00;;;20.30
18782;BMP180;9519;51.890;8.970;2022-10-16T15:08:58;99546.00;;;20.30
18782;BMP180;9519;51.890;8.970;2022-10-16T15:14:01;99573.00;;;20.20
18782;BMP180;9519;51.890;8.970;2022-10-16T15:19:05;99590.00;;;20.10
18782;BMP180;9519;51.890;8.970;2022-10-16T15:24:12;99579.00;;;20.00
18782;BMP180;9519;51.890;8.970;2022-10-16T15:29:14;99591.00;;;19.80
18782;BMP180;9519;51.890;8.970;2022-10-16T15:34:18;99612.00;;;19.60
18782;BMP180;9519;51.890;8.970;2022-10-16T15:39:20;99613.00;;;19.30
18782;BMP180;9519;51.890;8.970;2022-10-16T15:44:23;99613.00;;;19.10
18782;BMP180;9519;51.890;8.970;2022-10-16T15:49:28;99623.00;;;18.90
18782;BMP180;9519;51.890;8.970;2022-10-16T15:54:30;99629.00;;;18.60
18782;BMP180;9519;51.890;8.970;2022-10-16T15:59:32;99633.00;;;18.40
18782;BMP180;9519;51.890;8.970;2022-10-16T16:04:35;99640.00;;;18.10
18782;BMP180;9519;51.890;8.970;2022-10-16T16:09:38;99645.00;;;17.90
18782;BMP180;9519;51.890;8.970;2022-10-16T16:14:40;99632.00;;;17.60
18782;BMP180;9519;51.890;8.970;2022-10-16T16:19:45;99626.00;;;17.40
18782;BMP180;9519;51.890;8.970;2022-10-16T16:24:48;99665.00;;;17.20
18782;BMP180;9519;51.890;8.970;2022-10-16T16:29:50;99667.00;;;17.10
18782;BMP180;9519;51.890;8.970;2022-10-16T16:34:54;99653.00;;;17.00
18782;BMP180;9519;51.890;8.970;2022-10-16T16:39:56;99678.00;;;16.80
18782;BMP180;9519;51.890;8.970;2022-10-16T16:44:59;99665.00;;;16.70
18782;BMP180;9519;51.890;8.970;2022-10-16T16:50:02;99664.00;;;16.60
18782;BMP180;9519;51.890;8.970;2022-10-16T16:55:10;99684.00;;;16.40
18782;BMP180;9519;51.890;8.970;2022-10-16T17:00:13;99668.00;;;16.40
18782;BMP180;9519;51.890;8.970;2022-10-16T17:05:17;99707.00;;;16.30
18782;BMP180;9519;51.890;8.970;2022-10-16T17:10:20;99707.00;;;16.20
18782;BMP180;9519;51.890;8.970;2022-10-16T17:15:22;99718.00;;;16.10
18782;BMP180;9519;51.890;8.970;2022-10-16T17:20:25;99696.00;;;16.00
18782;BMP180;9519;51.890;8.970;2022-10-16T17:25:27;99722.00;;;16.00
18782;BMP180;9519;51.890;8.970;2022-10-16T17:30:30;99733.00;;;15.90
18782;BMP180;9519;51.890;8.970;2022-10-16T17:35:38;99731.00;;;15.90
18782;BMP180;9519;51.890;8.970;2022-10-16T17:40:41;99712.00;;;15.80
18782;BMP180;9519;51.890;8.970;2022-10-16T17:45:43;99742.00;;;15.80
18782;BMP180;9519;51.890;8.970;2022-10-16T17:50:47;99746.00;;;15.70
18782;BMP180;9519;51.890;8.970;2022-10-16T17:55:49;99747.00;;;15.70
18782;BMP180;9519;51.890;8.970;2022-10-16T18:00:56;99720.00;;;15.60
18782;BMP180;9519;51.890;8.970;2022-10-16T18:06:01;99732.00;;;15.50
18782;BMP180;9519;51.890;8.970;2022-10-16T18:11:04;99748.00;;;15.50
18782;BMP180;9519;51.890;8.970;2022-10-16T18:16:10;99740.00;;;15.40
18782;BMP180;9519;51.890;8.970;2022-10-16T18:21:17;99723.00;;;15.30
18782;BMP180;9519;51.890;8.970;2022-10-16T18:26:20;99602.00;;;15.30
18782;BMP180;9519;51.890;8.970;2022-10-16T18:31:24;99753.00;;;15.20
18782;BMP180;9519;51.890;8.970;2022-10-16T18:36:31;99591.00;;;15.20
18782;BMP180;9519;51.890;8.970;2022-10-16T18:41:34;99770.00;;;15.20
18782;BMP180;9519;51.890;8.970;2022-10-16T18:46:38;99779.00;;;15.20
18782;BMP180;9519;51.890;8.970;2022-10-16T18:51:42;99785.00;;;15.10
18782;BMP180;9519;51.890;8.970;2022-10-16T18:56:45;99601.00;;;15.10
18782;BMP180;9519;51.890;8.970;2022-10-16T19:01:48;99623.00;;;15.00
18782;BMP180;9519;51.890;8.970;2022-10-16T19:06:53;99611.00;;;15.00
18782;BMP180;9519;51.890;8.970;2022-10-16T19:11:55;99779.00;;;14.90
18782;BMP180;9519;51.890;8.970;2022-10-16T19:16:59;99774.00;;;14.90
18782;BMP180;9519;51.890;8.970;2022-10-16T19:22:03;99771.00;;;14.80
18782;BMP180;9519;51.890;8.970;2022-10-16T19:27:14;99765.00;;;14.80
18782;BMP180;9519;51.890;8.970;2022-10-16T19:32:16;99770.00;;;14.80
18782;BMP180;9519;51.890;8.970;2022-10-16T19:37:20;99760.00;;;14.70
18782;BMP180;9519;51.890;8.970;2022-10-16T19:42:25;99608.00;;;14.70
18782;BMP180;9519;51.890;8.970;2022-10-16T19:47:28;99600.00;;;14.70
18782;BMP180;9519;51.890;8.970;2022-10-16T19:52:31;99782.00;;;14.70
18782;BMP180;9519;51.890;8.970;2022-10-16T19:57:34;99773.00;;;14.70
18782;BMP180;9519;51.890;8.970;2022-10-16T20:02:37;99603.00;;;14.60
18782;BMP180;9519;51.890;8.970;2022-10-16T20:07:41;99749.00;;;14.60
18782;BMP180;9519;51.890;8.970;2022-10-16T20:12:43;99797.00;;;14.60
18782;BMP180;9519;51.890;8.970;2022-10-16T20:17:45;99787.00;;;14.50
18782;BMP180;9519;51.890;8.970;2022-10-16T20:22:48;99775.00;;;14.50
18782;BMP180;9519;51.890;8.970;2022-10-16T20:27:50;99792.00;;;14.50
18782;BMP180;9519;51.890;8.970;2022-10-16T20:32:53;99788.00;;;14.50
18782;BMP180;9519;51.890;8.970;2022-10-16T20:37:58;99802.00;;;14.50
18782;BMP180;9519;51.890;8.970;2022-10-16T20:43:00;99845.00;;;14.50
18782;BMP180;9519;51.890;8.970;2022-10-16T20:48:02;99847.00;;;14.60
18782;BMP180;9519;51.890;8.970;2022-10-16T20:53:07;99848.00;;;14.60
18782;BMP180;9519;51.890;8.970;2022-10-16T20:58:09;99862.00;;;14.60
18782;BMP180;9519;51.890;8.970;2022-10-16T21:03:12;99828.00;;;14.50
18782;BMP180;9519;51.890;8.970;2022-10-16T21:08:15;99843.00;;;14.60
18782;BMP180;9519;51.890;8.970;2022-10-16T21:13:18;99848.00;;;14.60
18782;BMP180;9519;51.890;8.970;2022-10-16T21:18:20;99839.00;;;14.60
18782;BMP180;9519;51.890;8.970;2022-10-16T21:23:23;99835.00;;;14.50
18782;BMP180;9519;51.890;8.970;2022-10-16T21:28:26;99835.00;;;14.60
18782;BMP180;9519;51.890;8.970;2022-10-16T21:33:28;99823.00;;;14.60
18782;BMP180;9519;51.890;8.970;2022-10-16T21:38:32;99827.00;;;14.50
18782;BMP180;9519;51.890;8.970;2022-10-16T21:43:34;99805.00;;;14.50
18782;BMP180;9519;51.890;8.970;2022-10-16T21:48:37;99805.00;;;14.50
18782;BMP180;9519;51.890;8.970;2022-10-16T21:53:41;99804.00;;;14.50
18782;BMP180;9519;51.890;8.970;2022-10-16T21:58:44;99807.00;;;14.50
18782;BMP180;9519;51.890;8.970;2022-10-16T22:03:47;99808.00;;;14.40
18782;BMP180;9519;51.890;8.970;2022-10-16T22:08:53;99810.00;;;14.40
18782;BMP180;9519;51.890;8.970;2022-10-16T22:13:56;99791.00;;;14.30
18782;BMP180;9519;51.890;8.970;2022-10-16T22:18:58;99805.00;;;14.30
18782;BMP180;9519;51.890;8.970;2022-10-16T22:24:06;99812.00;;;14.30
18782;BMP180;9519;51.890;8.970;2022-10-16T22:29:11;99824.00;;;14.20
18782;BMP180;9519;51.890;8.970;2022-10-16T22:34:13;99808.00;;;14.20
18782;BMP180;9519;51.890;8.970;2022-10-16T22:39:17;99785.00;;;14.20
18782;BMP180;9519;51.890;8.970;2022-10-16T22:44:20;99797.00;;;14.20
18782;BMP180;9519;51.890;8.970;2022-10-16T22:49:22;99781.00;;;14.20
18782;BMP180;9519;51.890;8.970;2022-10-16T22:54:26;99620.00;;;14.10
18782;BMP180;9519;51.890;8.970;2022-10-16T22:59:28;99791.00;;;14.10
18782;BMP180;9519;51.890;8.970;2022-10-16T23:04:31;99796.00;;;14.00
18782;BMP180;9519;51.890;8.970;2022-10-16T23:09:35;99793.00;;;14.00
18782;BMP180;9519;51.890;8.970;2022-10-16T23:14:37;99788.00;;;13.90
18782;BMP180;9519;51.890;8.970;2022-10-16T23:19:39;99617.00;;;13.90
18782;BMP180;9519;51.890;8.970;2022-10-16T23:24:42;99600.00;;;13.80
18782;BMP180;9519;51.890;8.970;2022-10-16T23:29:44;99612.00;;;13.80
18782;BMP180;9519;51.890;8.970;2022-10-16T23:34:46;99609.00;;;13.70
18782;BMP180;9519;51.890;8.970;2022-10-16T23:39:51;99593.00;;;13.70
18782;BMP180;9519;51.890;8.970;2022-10-16T23:44:53;99589.00;;;13.60
18782;BMP180;9519;51.890;8.970;2022-10-16T23:49:55;99613.00;;;13.60
18782;BMP180;9519;51.890;8.970;2022-10-16T23:54:59;99601.00;;;13.50
